Time;durP1;ratioP1;P1;durP2;ratioP2;P2;SDS_P1;SDS_P2;PMS_P1;PMS_P2;Temp;Humidity;BMP_temperature;BMP_pressure;BME280_temperature;BME280_humidity;BME280_pressure;Samples;Min_cycle;Max_cycle;Signal;HPM_P1;HPM_P2
2021/11/13 00:01:24;;;;;;;20.70;6.78;;;10.90;84.10;;;;;;5016124;28;20045;-87
2021/11/13 00:03:51;;;;;;;22.27;7.10;;;10.90;84.10;;;;;;5012985;28;20814;-87
2021/11/13 00:06:18;;;;;;;26.30;7.10;;;10.90;84.10;;;;;;5012906;28;20057;-88
2021/11/13 00:08:45;;;;;;;31.63;8.13;;;10.90;84.10;;;;;;5014613;28;20112;-87
2021/11/13 00:11:12;;;;;;;28.75;7.70;;;10.90;84.20;;;;;;5013513;28;20049;-86
2021/11/13 00:13:40;;;;;;;21.67;6.68;;;10.90;84.20;;;;;;5014583;28;20042;-88
2021/11/13 00:16:08;;;;;;;26.27;7.10;;;10.90;84.30;;;;;;5015081;28;20099;-87
2021/11/13 00:18:35;;;;;;;20.58;6.10;;;10.90;84.30;;;;;;5011014;28;20450;-87
2021/11/13 00:21:05;;;;;;;20.98;6.88;;;10.90;84.30;;;;;;5019109;28;20047;-88
2021/11/13 00:23:32;;;;;;;19.48;6.30;;;10.90;84.40;;;;;;5013090;28;20132;-89
2021/11/13 00:25:59;;;;;;;22.40;7.25;;;10.90;84.40;;;;;;5013034;28;20054;-88
2021/11/13 00:28:26;;;;;;;20.20;6.80;;;10.90;84.40;;;;;;5014313;28;20037;-87
2021/11/13 00:30:54;;;;;;;27.35;7.15;;;10.90;84.40;;;;;;5013210;28;20069;-87
2021/11/13 00:33:21;;;;;;;19.98;6.35;;;10.90;84.40;;;;;;5012091;28;20050;-87
2021/11/13 00:35:48;;;;;;;17.92;6.18;;;10.90;84.40;;;;;;5015358;28;20056;-87
2021/11/13 00:38:15;;;;;;;19.73;6.63;;;10.90;84.40;;;;;;5013140;28;20395;-88
2021/11/13 00:40:42;;;;;;;16.20;6.07;;;10.90;84.40;;;;;;5013110;28;20053;-89
2021/11/13 00:43:09;;;;;;;21.58;6.40;;;10.90;84.50;;;;;;5015306;28;20084;-88
2021/11/13 00:45:36;;;;;;;23.73;6.63;;;10.90;84.50;;;;;;5012274;28;20050;-89
2021/11/13 00:48:03;;;;;;;16.50;6.07;;;10.90;84.60;;;;;;5013186;28;20061;-88
2021/11/13 00:50:30;;;;;;;14.60;6.18;;;10.90;84.70;;;;;;5019760;28;20057;-89
2021/11/13 00:52:57;;;;;;;15.82;6.05;;;10.90;84.70;;;;;;5015066;28;20532;-87
2021/11/13 00:55:24;;;;;;;15.73;5.63;;;10.90;84.80;;;;;;5014639;28;20042;-88
2021/11/13 00:57:51;;;;;;;17.85;5.70;;;10.90;84.90;;;;;;5013966;28;20049;-89
2021/11/13 01:00:20;;;;;;;13.95;5.88;;;10.90;85.00;;;;;;5013431;28;20053;-88
2021/11/13 01:02:48;;;;;;;16.33;5.88;;;10.90;85.00;;;;;;5014422;28;20050;-89
2021/11/13 01:05:15;;;;;;;20.45;6.32;;;10.90;85.00;;;;;;5012127;28;20104;-88
2021/11/13 01:07:43;;;;;;;16.77;5.80;;;10.90;85.00;;;;;;5012773;28;20099;-88
2021/11/13 01:10:10;;;;;;;15.18;5.65;;;10.90;85.00;;;;;;5013124;28;20057;-87
2021/11/13 01:12:38;;;;;;;14.85;4.63;;;10.90;85.00;;;;;;5011845;28;20049;-87
2021/11/13 01:15:09;;;;;;;19.15;5.85;;;10.90;85.00;;;;;;5013241;28;20054;-90
2021/11/13 01:17:36;;;;;;;17.85;5.13;;;10.90;85.10;;;;;;5018882;28;20050;-88
2021/11/13 01:20:06;;;;;;;18.98;5.72;;;11.00;85.10;;;;;;5011848;28;20572;-90
2021/11/13 01:22:33;;;;;;;20.13;6.25;;;10.90;85.10;;;;;;5011653;28;20050;-89
2021/11/13 01:25:00;;;;;;;13.05;5.70;;;11.00;85.20;;;;;;4997946;28;20069;-89
2021/11/13 01:27:27;;;;;;;16.25;4.50;;;10.90;85.20;;;;;;4992252;28;20584;-88
2021/11/13 01:29:54;;;;;;;11.10;4.60;;;11.00;85.20;;;;;;5011332;28;20058;-89
2021/11/13 01:32:21;;;;;;;12.25;5.05;;;11.00;85.20;;;;;;5010726;28;20052;-88
2021/11/13 01:34:49;;;;;;;13.57;5.38;;;11.00;85.20;;;;;;5012525;28;20050;-88
2021/11/13 01:37:16;;;;;;;14.80;4.97;;;11.00;85.20;;;;;;5011958;28;20054;-88
2021/11/13 01:39:43;;;;;;;13.52;5.45;;;11.00;85.30;;;;;;5011365;28;20498;-89
2021/11/13 01:42:11;;;;;;;12.45;4.43;;;11.00;85.30;;;;;;5013812;28;20107;-89
2021/11/13 01:44:38;;;;;;;13.27;5.25;;;11.00;85.30;;;;;;5012266;28;20046;-89
2021/11/13 01:47:07;;;;;;;16.30;4.95;;;11.00;85.30;;;;;;5013090;28;20054;-89
2021/11/13 01:49:37;;;;;;;11.57;4.90;;;11.00;85.30;;;;;;5012119;28;20049;-87
2021/11/13 01:52:10;;;;;;;12.68;4.78;;;11.10;85.40;;;;;;5012230;28;20053;-88
2021/11/13 01:54:39;;;;;;;17.42;5.30;;;11.00;85.40;;;;;;5011248;28;20046;-88
2021/11/13 01:57:11;;;;;;;9.98;4.63;;;11.10;85.40;;;;;;5011901;28;20462;-87
2021/11/13 01:59:40;;;;;;;12.05;4.72;;;11.00;85.40;;;;;;5016316;28;20057;-88
2021/11/13 02:02:09;;;;;;;16.10;5.10;;;11.00;85.50;;;;;;5018525;28;20054;-88
2021/11/13 02:04:35;;;;;;;11.77;4.30;;;11.10;85.50;;;;;;5018753;28;20127;-88
2021/11/13 02:07:04;;;;;;;11.73;4.72;;;11.10;85.50;;;;;;5014483;28;20062;-89
2021/11/13 02:09:31;;;;;;;14.88;4.57;;;11.10;85.50;;;;;;5010988;28;20108;-89
2021/11/13 02:11:59;;;;;;;10.40;4.55;;;11.10;85.60;;;;;;5011525;28;20049;-87
2021/11/13 02:14:29;;;;;;;10.80;4.25;;;11.10;85.60;;;;;;5013245;28;20045;-90
2021/11/13 02:16:57;;;;;;;8.68;3.75;;;11.10;85.60;;;;;;5015697;28;20533;-90
2021/11/13 02:19:24;;;;;;;10.70;3.80;;;11.10;85.60;;;;;;5015932;28;20042;-88
2021/11/13 02:21:51;;;;;;;9.65;3.78;;;11.10;85.60;;;;;;5015827;28;20076;-89
2021/11/13 02:24:18;;;;;;;10.35;3.80;;;11.10;85.60;;;;;;5014761;28;20506;-89
2021/11/13 02:26:45;;;;;;;9.63;3.65;;;11.10;85.60;;;;;;5017290;28;20058;-88
2021/11/13 02:29:12;;;;;;;8.98;4.07;;;11.10;85.60;;;;;;5016371;28;20057;-89
2021/11/13 02:31:42;;;;;;;7.40;3.70;;;11.10;85.60;;;;;;5022488;28;20053;-90
2021/11/13 02:34:10;;;;;;;9.23;3.72;;;11.10;85.50;;;;;;5017804;28;20485;-91
2021/11/13 02:36:38;;;;;;;7.68;3.85;;;11.10;85.50;;;;;;5014858;28;20438;-90
2021/11/13 02:39:08;;;;;;;9.30;3.45;;;11.20;85.50;;;;;;5014934;28;20046;-90
2021/11/13 02:41:35;;;;;;;11.27;3.47;;;11.10;85.50;;;;;;5015589;28;20046;-90
2021/11/13 02:44:04;;;;;;;7.78;3.08;;;11.10;85.40;;;;;;5014303;28;20052;-90
2021/11/13 02:46:33;;;;;;;9.65;3.50;;;11.10;85.40;;;;;;5015635;28;20510;-89
2021/11/13 02:49:02;;;;;;;9.50;3.80;;;11.10;85.40;;;;;;5002220;28;20049;-89
2021/11/13 02:51:29;;;;;;;7.25;3.40;;;11.20;85.30;;;;;;5010748;28;20525;-90
2021/11/13 02:53:56;;;;;;;7.57;3.47;;;11.10;85.30;;;;;;5016816;28;20053;-88
2021/11/13 02:56:23;;;;;;;7.43;3.00;;;11.10;85.30;;;;;;5014253;28;20665;-88
2021/11/13 02:58:50;;;;;;;8.60;3.33;;;11.10;85.20;;;;;;5016101;28;20038;-88
2021/11/13 03:01:23;;;;;;;8.45;3.38;;;11.10;85.30;;;;;;5014689;28;20045;-88
2021/11/13 03:03:52;;;;;;;9.23;3.15;;;11.10;85.30;;;;;;5014021;28;20058;-89
2021/11/13 03:06:19;;;;;;;8.88;2.60;;;11.10;85.30;;;;;;5014033;28;20050;-88
2021/11/13 03:08:49;;;;;;;7.15;3.03;;;11.10;85.30;;;;;;5014573;28;20061;-87
2021/11/13 03:11:18;;;;;;;9.05;2.50;;;11.10;85.30;;;;;;5014742;28;20050;-88
2021/11/13 03:13:48;;;;;;;5.63;2.70;;;11.10;85.40;;;;;;5015521;28;20048;-88
2021/11/13 03:16:17;;;;;;;6.30;2.47;;;11.20;85.40;;;;;;5013987;28;20045;-88
2021/11/13 03:18:44;;;;;;;7.22;2.40;;;11.20;85.40;;;;;;5014732;28;20388;-89
2021/11/13 03:21:12;;;;;;;9.38;2.65;;;11.10;85.40;;;;;;5012084;28;20054;-89
2021/11/13 03:23:41;;;;;;;6.70;2.42;;;11.20;85.40;;;;;;5013866;28;20453;-88
2021/11/13 03:26:23;;;;;;;6.85;1.98;;;11.20;85.40;;;;;;5013288;28;20104;-88
2021/11/13 03:28:54;;;;;;;6.65;2.58;;;11.20;85.40;;;;;;5014345;28;20046;-88
2021/11/13 03:31:23;;;;;;;6.30;2.47;;;11.20;85.50;;;;;;5013586;28;20053;-89
2021/11/13 03:33:51;;;;;;;5.72;1.73;;;11.20;85.50;;;;;;5014636;28;20147;-88
2021/11/13 03:36:20;;;;;;;6.45;2.40;;;11.20;85.40;;;;;;5013784;28;20057;-89
2021/11/13 03:38:48;;;;;;;6.30;2.40;;;11.20;85.40;;;;;;5013472;28;20046;-88
2021/11/13 03:41:16;;;;;;;5.55;2.45;;;11.20;85.40;;;;;;5020091;28;20057;-89
2021/11/13 03:43:44;;;;;;;6.15;2.40;;;11.20;85.30;;;;;;5014330;28;20042;-88
2021/11/13 03:46:11;;;;;;;5.28;2.33;;;11.20;85.30;;;;;;5012910;28;20684;-88
2021/11/13 03:48:39;;;;;;;5.10;2.20;;;11.20;85.30;;;;;;5013830;28;20056;-89
2021/11/13 03:51:06;;;;;;;4.78;2.05;;;11.20;85.20;;;;;;5015655;28;20057;-88
2021/11/13 03:53:33;;;;;;;10.32;2.33;;;11.20;85.10;;;;;;5013392;28;20513;-89
2021/11/13 03:56:00;;;;;;;4.13;2.00;;;11.20;85.10;;;;;;5020009;28;20050;-88
2021/11/13 03:58:28;;;;;;;4.85;2.03;;;11.20;85.10;;;;;;5016270;28;20042;-89
2021/11/13 04:00:54;;;;;;;6.50;2.10;;;11.20;85.10;;;;;;5014263;28;20502;-88
2021/11/13 04:03:22;;;;;;;7.65;1.98;;;11.10;85.00;;;;;;5013132;28;20045;-89
2021/11/13 04:05:49;;;;;;;5.75;2.28;;;11.20;85.00;;;;;;5013736;28;20462;-88
2021/11/13 04:08:16;;;;;;;5.82;1.77;;;11.10;85.00;;;;;;5013790;28;20058;-88
2021/11/13 04:10:43;;;;;;;6.43;1.90;;;11.20;85.00;;;;;;5020201;28;20053;-88
2021/11/13 04:13:10;;;;;;;6.13;1.63;;;11.10;85.00;;;;;;5013981;28;20050;-88
2021/11/13 04:15:38;;;;;;;5.25;2.22;;;11.10;85.10;;;;;;5011687;28;20058;-88
2021/11/13 04:18:05;;;;;;;6.50;1.95;;;11.10;85.10;;;;;;5013334;28;20049;-86
2021/11/13 04:20:32;;;;;;;13.55;2.20;;;11.10;85.10;;;;;;5013512;28;20061;-88
2021/11/13 04:22:59;;;;;;;8.43;2.28;;;11.10;85.20;;;;;;5012304;28;20049;-88
2021/11/13 04:25:27;;;;;;;9.73;2.42;;;11.20;85.20;;;;;;5014123;28;20046;-88
2021/11/13 04:27:54;;;;;;;8.38;2.28;;;11.10;85.20;;;;;;5013463;28;20050;-88
2021/11/13 04:30:21;;;;;;;14.07;2.67;;;11.10;85.30;;;;;;5012677;28;20056;-88
2021/11/13 04:32:50;;;;;;;4.97;1.90;;;11.10;85.30;;;;;;5013323;28;20057;-88
2021/11/13 04:37:55;;;;;;;10.20;2.15;;;11.10;85.40;;;;;;5014352;28;20045;-88
2021/11/13 04:40:27;;;;;;;9.52;2.20;;;11.20;85.40;;;;;;5014461;28;20050;-88
2021/11/13 04:42:55;;;;;;;8.20;2.38;;;11.10;85.40;;;;;;5014815;28;20042;-88
2021/11/13 04:45:23;;;;;;;11.90;2.60;;;11.20;85.40;;;;;;5017326;28;20053;-88
2021/11/13 04:47:51;;;;;;;11.13;2.00;;;11.20;85.40;;;;;;5012976;28;20473;-88
2021/11/13 04:50:25;;;;;;;10.40;2.20;;;11.20;85.50;;;;;;5013029;28;20041;-88
2021/11/13 04:52:53;;;;;;;9.15;2.58;;;11.10;85.40;;;;;;5012330;28;20473;-88
2021/11/13 04:55:20;;;;;;;9.20;2.03;;;11.10;85.50;;;;;;5012611;28;20068;-90
2021/11/13 04:57:48;;;;;;;7.38;2.08;;;11.20;85.50;;;;;;5013229;28;20060;-89
2021/11/13 05:00:16;;;;;;;7.70;2.28;;;11.20;85.40;;;;;;5012019;28;20410;-89
2021/11/13 05:02:43;;;;;;;11.20;2.28;;;11.20;85.50;;;;;;5012059;28;20058;-89
2021/11/13 05:05:10;;;;;;;14.35;2.25;;;11.20;85.50;;;;;;5012871;28;20100;-89
2021/11/13 05:07:37;;;;;;;9.55;2.25;;;11.10;85.50;;;;;;5019402;28;20099;-89
2021/11/13 05:10:05;;;;;;;14.40;2.42;;;11.20;85.50;;;;;;5012241;28;20053;-88
2021/11/13 05:12:32;;;;;;;13.35;2.30;;;11.20;85.50;;;;;;5011602;28;20135;-88
2021/11/13 05:14:59;;;;;;;14.32;2.42;;;11.20;85.50;;;;;;5012629;28;20109;-88
2021/11/13 05:17:26;;;;;;;15.65;2.88;;;11.20;85.60;;;;;;5018928;28;20050;-88
2021/11/13 05:19:53;;;;;;;12.88;2.80;;;11.20;85.60;;;;;;5011836;28;20065;-88
2021/11/13 05:22:20;;;;;;;12.55;2.53;;;11.20;85.60;;;;;;5013225;28;20099;-88
2021/11/13 05:24:46;;;;;;;8.88;1.95;;;11.20;85.70;;;;;;5012080;28;20046;-89
2021/11/13 05:27:13;;;;;;;17.10;2.75;;;11.20;85.70;;;;;;5017555;28;20049;-88
2021/11/13 05:29:40;;;;;;;12.30;2.50;;;11.20;85.70;;;;;;5012584;28;20076;-88
2021/11/13 05:32:08;;;;;;;12.48;2.60;;;11.20;85.70;;;;;;5012348;28;20058;-90
2021/11/13 05:34:35;;;;;;;14.88;2.70;;;11.20;85.70;;;;;;5011678;28;20053;-89
2021/11/13 05:37:03;;;;;;;12.95;2.00;;;11.20;85.70;;;;;;5012742;28;20065;-87
2021/11/13 05:39:29;;;;;;;11.82;2.50;;;11.20;85.70;;;;;;5015646;28;20104;-88
2021/11/13 05:41:56;;;;;;;9.88;2.15;;;11.20;85.70;;;;;;5013859;28;20057;-88
2021/11/13 05:44:23;;;;;;;9.93;2.33;;;11.20;85.70;;;;;;5013329;28;20046;-88
2021/11/13 05:46:54;;;;;;;8.55;2.08;;;11.20;85.70;;;;;;5010650;28;20532;-88
2021/11/13 05:49:22;;;;;;;12.32;2.47;;;11.20;85.70;;;;;;5014352;28;20058;-89
2021/11/13 05:51:50;;;;;;;9.73;2.63;;;11.20;85.60;;;;;;5012065;28;20057;-88
2021/11/13 05:54:17;;;;;;;13.82;2.40;;;11.20;85.60;;;;;;5012707;28;20054;-88
2021/11/13 05:56:45;;;;;;;10.52;2.10;;;11.20;85.60;;;;;;5010840;28;20057;-88
2021/11/13 05:59:12;;;;;;;8.70;1.92;;;11.20;85.60;;;;;;5013478;28;20096;-87
2021/11/13 06:01:39;;;;;;;13.48;2.45;;;11.20;85.60;;;;;;5012228;28;20116;-88
2021/11/13 06:04:06;;;;;;;13.35;2.22;;;11.20;85.60;;;;;;5011002;28;20506;-88
2021/11/13 06:06:53;;;;;;;12.48;2.25;;;11.20;85.60;;;;;;5011868;28;20077;-88
2021/11/13 06:09:20;;;;;;;10.80;2.30;;;11.20;85.60;;;;;;5011217;28;20057;-89
2021/11/13 06:11:47;;;;;;;15.05;2.75;;;11.20;85.60;;;;;;5013227;28;20058;-88
2021/11/13 06:14:14;;;;;;;8.65;1.80;;;11.20;85.60;;;;;;5018992;28;20502;-88
2021/11/13 06:16:41;;;;;;;11.98;2.30;;;11.10;85.60;;;;;;5007789;28;20450;-89
2021/11/13 06:19:07;;;;;;;14.07;2.58;;;11.10;85.60;;;;;;5012356;28;20049;-88
2021/11/13 06:21:35;;;;;;;9.32;2.00;;;11.20;85.60;;;;;;5009771;28;20064;-89
2021/11/13 06:24:04;;;;;;;13.18;2.40;;;11.10;85.60;;;;;;5010509;28;20112;-88
2021/11/13 06:26:31;;;;;;;11.90;2.15;;;11.10;85.60;;;;;;5012402;28;20054;-88
2021/11/13 06:28:58;;;;;;;13.60;2.80;;;11.10;85.50;;;;;;5012132;28;20575;-88
2021/11/13 06:31:25;;;;;;;12.85;2.28;;;11.10;85.50;;;;;;5013373;28;20050;-88
2021/11/13 06:33:52;;;;;;;15.40;2.30;;;11.10;85.50;;;;;;5010556;28;20042;-87
2021/11/13 06:36:19;;;;;;;7.72;2.60;;;11.10;85.60;;;;;;5011279;28;20046;-89
2021/11/13 06:38:46;;;;;;;9.55;2.58;;;11.10;85.50;;;;;;5012498;28;20049;-88
2021/11/13 06:41:13;;;;;;;13.85;2.63;;;11.10;85.50;;;;;;5012412;28;20050;-88
2021/11/13 06:43:40;;;;;;;9.23;2.33;;;11.10;85.50;;;;;;5012001;28;20053;-88
2021/11/13 06:46:08;;;;;;;14.85;2.40;;;11.10;85.50;;;;;;5012248;28;20042;-89
2021/11/13 06:48:35;;;;;;;12.15;2.35;;;11.10;85.50;;;;;;5011518;28;20525;-88
2021/11/13 06:51:02;;;;;;;8.80;2.22;;;11.10;85.50;;;;;;5011999;28;20046;-88
2021/11/13 06:53:29;;;;;;;8.82;2.45;;;11.10;85.50;;;;;;5012661;28;20526;-89
2021/11/13 06:55:56;;;;;;;24.13;2.80;;;11.10;85.50;;;;;;5011062;28;20049;-90
2021/11/13 06:58:23;;;;;;;9.93;2.15;;;11.00;85.40;;;;;;5012325;28;20477;-90
2021/11/13 07:00:50;;;;;;;6.95;2.25;;;11.00;85.40;;;;;;5012422;28;20483;-90
2021/11/13 07:03:17;;;;;;;16.67;2.60;;;11.00;85.40;;;;;;5012949;28;20541;-89
2021/11/13 07:05:44;;;;;;;8.07;1.75;;;11.00;85.30;;;;;;5015053;28;20050;-90
2021/11/13 07:08:11;;;;;;;7.43;1.80;;;11.00;85.30;;;;;;5014412;28;20521;-89
2021/11/13 07:10:38;;;;;;;9.38;2.10;;;11.00;85.30;;;;;;5015473;28;20042;-87
2021/11/13 07:13:05;;;;;;;9.25;2.22;;;10.90;85.20;;;;;;5015752;28;20127;-88
2021/11/13 07:15:32;;;;;;;9.55;2.30;;;10.90;85.20;;;;;;5015106;28;20075;-88
2021/11/13 07:18:01;;;;;;;11.43;1.90;;;10.90;85.20;;;;;;5015420;28;20437;-89
2021/11/13 07:20:30;;;;;;;8.15;1.92;;;10.90;85.20;;;;;;5014928;28;20049;-89
2021/11/13 07:22:57;;;;;;;16.35;2.50;;;10.90;85.20;;;;;;5015654;28;20436;-88
2021/11/13 07:25:26;;;;;;;5.63;1.73;;;10.90;85.20;;;;;;5015618;28;20042;-88
2021/11/13 07:27:59;;;;;;;11.13;2.33;;;10.90;85.20;;;;;;5014688;28;20481;-90
2021/11/13 07:30:28;;;;;;;9.37;2.23;;;10.90;85.20;;;;;;5010527;28;20046;-89
2021/11/13 07:32:55;;;;;;;8.65;2.20;;;10.90;85.20;;;;;;5015405;28;20499;-90
2021/11/13 07:35:22;;;;;;;10.70;2.35;;;10.90;85.20;;;;;;5016608;28;20046;-89
2021/11/13 07:37:49;;;;;;;11.68;1.85;;;10.90;85.20;;;;;;5015171;28;20049;-90
2021/11/13 07:40:16;;;;;;;9.55;2.30;;;10.90;85.20;;;;;;5015251;28;20045;-89
2021/11/13 07:42:43;;;;;;;6.75;2.00;;;10.90;85.20;;;;;;5014794;28;20088;-90
2021/11/13 07:45:10;;;;;;;6.35;1.73;;;10.90;85.20;;;;;;5014347;28;20049;-90
2021/11/13 07:47:41;;;;;;;7.85;2.03;;;10.90;85.20;;;;;;5014546;28;20054;-90
2021/11/13 07:50:17;;;;;;;8.68;1.90;;;10.90;85.20;;;;;;5014786;28;20056;-89
2021/11/13 07:52:45;;;;;;;8.27;2.00;;;10.90;85.20;;;;;;5015317;28;20045;-89
2021/11/13 07:55:15;;;;;;;9.05;2.15;;;10.90;85.20;;;;;;5015148;28;20414;-89
2021/11/13 07:57:43;;;;;;;5.82;1.88;;;10.90;85.20;;;;;;5014213;28;20194;-88
2021/11/13 08:00:12;;;;;;;10.30;2.03;;;10.90;85.30;;;;;;5014078;28;20119;-89
2021/11/13 08:02:40;;;;;;;6.38;1.65;;;10.90;85.30;;;;;;5014356;28;20411;-89
2021/11/13 08:05:07;;;;;;;6.47;1.60;;;10.90;85.30;;;;;;5014196;28;20054;-89
2021/11/13 08:07:35;;;;;;;8.82;2.13;;;10.90;85.30;;;;;;5014439;28;20510;-88
2021/11/13 08:10:04;;;;;;;7.15;1.85;;;10.90;85.30;;;;;;5014023;28;20250;-89
2021/11/13 08:12:32;;;;;;;4.82;1.60;;;10.80;85.30;;;;;;5012334;28;20050;-88
2021/11/13 08:14:59;;;;;;;6.97;1.88;;;10.90;85.30;;;;;;5015297;28;20502;-90
2021/11/13 08:17:26;;;;;;;11.80;2.60;;;10.90;85.30;;;;;;5013475;28;20054;-90
2021/11/13 08:19:53;;;;;;;10.32;1.75;;;10.90;85.30;;;;;;5013982;28;20050;-88
2021/11/13 08:22:19;;;;;;;10.57;1.92;;;10.80;85.40;;;;;;5013866;28;20101;-88
2021/11/13 08:24:46;;;;;;;11.75;2.00;;;10.90;85.40;;;;;;5013681;28;20057;-88
2021/11/13 08:27:13;;;;;;;8.75;2.00;;;10.90;85.40;;;;;;5012781;28;20510;-89
2021/11/13 08:29:40;;;;;;;10.10;2.47;;;10.90;85.50;;;;;;5013572;28;20391;-88
2021/11/13 08:32:08;;;;;;;7.90;2.00;;;10.90;85.50;;;;;;5014229;28;20042;-88
2021/11/13 08:34:35;;;;;;;9.15;2.22;;;10.90;85.50;;;;;;5013270;28;20048;-89
2021/11/13 08:37:04;;;;;;;6.60;1.85;;;10.90;85.60;;;;;;5015721;28;20057;-88
2021/11/13 08:39:34;;;;;;;10.77;1.70;;;10.90;85.60;;;;;;5012912;28;20053;-90
2021/11/13 08:42:09;;;;;;;5.88;1.98;;;10.90;85.60;;;;;;5013367;28;20137;-89
2021/11/13 08:44:38;;;;;;;8.50;2.00;;;10.90;85.60;;;;;;5012554;28;20107;-89
2021/11/13 08:47:09;;;;;;;9.38;1.80;;;10.90;85.60;;;;;;5012662;28;20053;-90
2021/11/13 08:49:38;;;;;;;8.18;1.77;;;10.90;85.60;;;;;;5012554;28;20049;-89
2021/11/13 08:52:06;;;;;;;5.68;1.70;;;10.90;85.60;;;;;;5012350;28;20191;-88
2021/11/13 08:54:34;;;;;;;10.95;2.20;;;10.90;85.60;;;;;;5012434;28;20068;-90
2021/11/13 08:57:03;;;;;;;10.20;2.42;;;10.90;85.60;;;;;;5012159;28;20454;-88
2021/11/13 08:59:31;;;;;;;8.85;2.38;;;11.00;85.60;;;;;;5012186;28;20050;-89
2021/11/13 09:02:00;;;;;;;7.72;1.80;;;11.00;85.60;;;;;;5012020;28;20042;-89
2021/11/13 09:04:29;;;;;;;9.77;2.10;;;11.00;85.70;;;;;;5012952;28;20133;-88
2021/11/13 09:06:56;;;;;;;8.68;2.53;;;11.00;85.70;;;;;;5013000;28;20050;-88
2021/11/13 09:09:24;;;;;;;7.82;2.30;;;11.10;85.80;;;;;;5012167;28;20061;-89
2021/11/13 09:11:52;;;;;;;7.72;2.33;;;11.10;85.80;;;;;;5014006;28;20057;-89
2021/11/13 09:14:19;;;;;;;8.55;2.38;;;11.20;85.90;;;;;;5008049;28;20124;-88
2021/11/13 09:16:46;;;;;;;14.75;2.20;;;11.10;85.90;;;;;;5015793;28;20077;-89
2021/11/13 09:19:13;;;;;;;5.38;1.60;;;11.20;85.90;;;;;;5012889;28;20050;-89
2021/11/13 09:21:40;;;;;;;5.50;1.60;;;11.30;86.00;;;;;;5012399;28;20399;-88
2021/11/13 09:24:07;;;;;;;9.30;2.20;;;11.30;86.00;;;;;;5014039;28;20057;-89
2021/11/13 09:26:34;;;;;;;6.63;2.17;;;11.40;85.90;;;;;;5011518;28;20053;-88
2021/11/13 09:29:02;;;;;;;6.47;1.80;;;11.40;85.90;;;;;;5013476;28;20530;-88
2021/11/13 09:31:29;;;;;;;8.25;1.77;;;11.40;85.90;;;;;;5019801;28;20594;-88
2021/11/13 09:33:56;;;;;;;8.57;1.80;;;11.40;85.90;;;;;;5012399;28;20045;-88
2021/11/13 09:36:23;;;;;;;6.03;1.65;;;11.50;85.90;;;;;;5011615;28;20686;-88
2021/11/13 09:38:54;;;;;;;8.80;1.80;;;11.50;85.90;;;;;;5012707;28;20050;-89
2021/11/13 09:41:21;;;;;;;6.38;2.08;;;11.60;85.90;;;;;;5012482;28;20050;-88
2021/11/13 09:43:48;;;;;;;9.65;1.88;;;11.60;85.90;;;;;;5012126;28;20041;-89
2021/11/13 09:46:15;;;;;;;5.88;1.67;;;11.70;85.90;;;;;;5014482;28;20057;-88
2021/11/13 09:48:42;;;;;;;6.63;1.63;;;11.70;85.80;;;;;;5012089;28;20092;-88
2021/11/13 09:51:11;;;;;;;5.55;1.77;;;11.70;85.80;;;;;;5010423;28;20057;-89
2021/11/13 09:53:39;;;;;;;3.63;1.70;;;11.70;85.70;;;;;;5012460;28;20502;-89
2021/11/13 09:56:06;;;;;;;6.10;1.77;;;11.80;85.70;;;;;;5012134;28;20049;-89
2021/11/13 09:58:34;;;;;;;4.63;1.50;;;11.80;85.70;;;;;;5013380;28;20053;-88
2021/11/13 10:01:01;;;;;;;5.80;1.58;;;11.90;85.60;;;;;;5013458;28;20054;-88
2021/11/13 10:03:28;;;;;;;6.28;1.40;;;11.90;85.50;;;;;;5015760;28;20046;-89
2021/11/13 10:05:59;;;;;;;4.72;1.75;;;11.90;85.50;;;;;;5016606;28;20083;-89
2021/11/13 10:08:27;;;;;;;6.93;1.55;;;11.90;85.40;;;;;;5010648;28;20537;-88
2021/11/13 10:11:00;;;;;;;5.60;1.55;;;11.90;85.30;;;;;;5013525;28;20057;-89
2021/11/13 10:13:34;;;;;;;5.68;1.38;;;11.90;85.30;;;;;;5010932;28;20054;-88
2021/11/13 10:16:30;;;;;;;7.10;1.52;;;11.90;85.20;;;;;;4996308;28;20045;-89
2021/11/13 10:19:06;;;;;;;5.90;2.22;;;11.90;85.20;;;;;;5014392;28;20494;-89
2021/11/13 10:21:35;;;;;;;9.23;2.17;;;11.90;85.10;;;;;;5031387;28;20061;-89
2021/11/13 10:24:14;;;;;;;7.13;1.77;;;12.00;85.10;;;;;;5010221;28;20066;-88
2021/11/13 10:26:50;;;;;;;5.15;2.00;;;11.90;85.00;;;;;;5009937;28;20057;-88
2021/11/13 10:29:26;;;;;;;5.45;2.05;;;12.00;85.00;;;;;;5013263;28;20054;-88
2021/11/13 10:31:56;;;;;;;5.55;2.10;;;12.00;85.00;;;;;;5014285;28;20050;-89
2021/11/13 10:34:34;;;;;;;8.65;1.95;;;12.00;85.00;;;;;;5011913;28;20050;-88
2021/11/13 10:37:05;;;;;;;5.45;1.67;;;12.00;84.90;;;;;;5012907;28;20045;-88
2021/11/13 10:39:35;;;;;;;9.02;2.30;;;12.10;84.90;;;;;;5013714;28;20053;-88
2021/11/13 10:42:05;;;;;;;8.43;1.98;;;12.10;84.80;;;;;;5017562;28;20046;-88
2021/11/13 10:44:45;;;;;;;9.50;2.60;;;12.10;84.80;;;;;;5015511;28;20049;-88
2021/11/13 10:47:14;;;;;;;10.25;2.17;;;12.20;84.80;;;;;;5015187;28;20049;-89
2021/11/13 10:49:42;;;;;;;8.93;2.05;;;12.20;84.70;;;;;;5014276;28;20407;-88
2021/11/13 10:52:10;;;;;;;8.18;2.20;;;12.20;84.70;;;;;;5013998;28;20403;-88
2021/11/13 10:54:45;;;;;;;9.25;2.58;;;12.20;84.50;;;;;;5014113;28;20054;-88
2021/11/13 10:57:12;;;;;;;8.50;3.65;;;12.20;84.50;;;;;;5010888;28;20533;-88
2021/11/13 10:59:43;;;;;;;6.63;2.08;;;12.20;84.40;;;;;;5017324;28;20495;-88
2021/11/13 11:02:15;;;;;;;6.18;1.98;;;12.30;84.40;;;;;;5015182;28;20050;-88
2021/11/13 11:04:45;;;;;;;6.43;2.13;;;12.30;84.40;;;;;;5010085;28;20050;-88
2021/11/13 11:07:20;;;;;;;9.63;2.60;;;12.30;84.30;;;;;;5016183;28;20453;-89
2021/11/13 11:10:04;;;;;;;6.60;2.60;;;12.40;84.30;;;;;;5014348;28;20086;-88
2021/11/13 11:12:33;;;;;;;9.80;2.70;;;12.40;84.20;;;;;;5013922;28;20053;-87
2021/11/13 11:15:00;;;;;;;6.97;2.47;;;12.40;84.20;;;;;;5013609;28;20050;-88
2021/11/13 11:17:31;;;;;;;6.97;1.92;;;12.40;84.10;;;;;;5013070;28;20050;-89
2021/11/13 11:20:08;;;;;;;7.95;2.20;;;12.40;84.10;;;;;;5014534;28;20042;-88
2021/11/13 11:22:35;;;;;;;8.27;2.40;;;12.40;84.10;;;;;;5013868;28;20053;-90
2021/11/13 11:25:08;;;;;;;6.75;1.98;;;12.40;84.10;;;;;;5014358;28;20068;-87
2021/11/13 11:27:41;;;;;;;8.40;2.30;;;12.40;84.10;;;;;;5014154;28;20061;-88
2021/11/13 11:30:23;;;;;;;6.53;2.22;;;12.40;84.00;;;;;;5015753;28;20058;-89
2021/11/13 11:32:54;;;;;;;7.68;2.38;;;12.50;84.00;;;;;;5014789;28;20088;-89
2021/11/13 11:35:27;;;;;;;7.70;2.15;;;12.50;84.00;;;;;;5020099;28;20046;-88
2021/11/13 11:38:01;;;;;;;6.38;2.03;;;12.50;83.90;;;;;;5015264;28;20060;-89
2021/11/13 11:40:31;;;;;;;6.00;2.00;;;12.50;83.90;;;;;;5015386;28;20108;-89
2021/11/13 11:43:00;;;;;;;8.93;2.10;;;12.50;83.90;;;;;;5016531;28;20115;-88
2021/11/13 11:45:33;;;;;;;6.45;2.17;;;12.50;83.80;;;;;;5016845;28;20050;-88
2021/11/13 11:48:00;;;;;;;5.43;2.00;;;12.60;83.80;;;;;;5013511;28;20061;-89
2021/11/13 11:50:30;;;;;;;7.53;2.78;;;12.50;83.70;;;;;;5015982;28;20058;-87
2021/11/13 11:52:59;;;;;;;10.38;2.97;;;12.60;83.70;;;;;;5015725;28;20446;-88
2021/11/13 11:55:27;;;;;;;6.88;2.25;;;12.60;83.60;;;;;;5013956;28;20620;-89
2021/11/13 11:57:56;;;;;;;7.05;2.13;;;12.60;83.50;;;;;;5014556;28;20104;-88
2021/11/13 12:00:26;;;;;;;7.68;2.38;;;12.60;83.50;;;;;;5012630;28;20053;-88
2021/11/13 12:02:57;;;;;;;5.90;2.13;;;12.60;83.40;;;;;;5014648;28;20050;-88
2021/11/13 12:05:28;;;;;;;9.50;4.47;;;12.60;83.40;;;;;;5015276;28;20086;-88
2021/11/13 12:07:56;;;;;;;10.20;5.38;;;12.60;83.40;;;;;;5015140;28;20533;-88
2021/11/13 12:10:27;;;;;;;9.50;3.75;;;12.50;83.40;;;;;;5013810;28;20181;-88
2021/11/13 12:13:12;;;;;;;6.82;3.45;;;12.60;83.40;;;;;;5013431;28;20045;-89
2021/11/13 12:15:52;;;;;;;6.75;3.00;;;12.60;83.40;;;;;;5010685;28;20124;-88
2021/11/13 12:18:24;;;;;;;8.57;3.22;;;12.60;83.40;;;;;;5022782;28;20477;-88
2021/11/13 12:21:02;;;;;;;6.85;2.85;;;12.60;83.40;;;;;;5015688;28;20054;-89
2021/11/13 12:23:39;;;;;;;6.82;2.97;;;12.60;83.40;;;;;;5013116;28;20046;-88
2021/11/13 12:26:10;;;;;;;6.40;2.95;;;12.60;83.40;;;;;;5015552;28;20569;-88
2021/11/13 12:28:47;;;;;;;7.63;2.90;;;12.70;83.40;;;;;;5014734;28;20060;-88
2021/11/13 12:31:22;;;;;;;6.80;2.80;;;12.70;83.40;;;;;;5014479;28;20675;-88
2021/11/13 12:33:55;;;;;;;6.45;3.10;;;12.70;83.30;;;;;;5014410;28;20053;-87
2021/11/13 12:36:36;;;;;;;8.25;2.78;;;12.70;83.30;;;;;;5013332;28;20049;-88
2021/11/13 12:39:10;;;;;;;8.63;2.70;;;12.70;83.30;;;;;;5013025;28;20057;-87
2021/11/13 12:41:43;;;;;;;5.10;2.25;;;12.80;83.20;;;;;;5013394;28;20062;-87
2021/11/13 12:44:15;;;;;;;6.68;2.80;;;12.80;83.20;;;;;;5013076;28;20050;-88
2021/11/13 12:46:51;;;;;;;5.80;2.60;;;12.80;83.10;;;;;;5012329;28;20042;-88
2021/11/13 12:49:18;;;;;;;6.45;2.63;;;12.80;83.10;;;;;;5013236;28;20518;-88
2021/11/13 12:51:52;;;;;;;6.25;2.30;;;12.80;83.10;;;;;;5013499;28;20050;-89
2021/11/13 12:54:32;;;;;;;5.50;2.05;;;12.90;83.10;;;;;;5013645;28;20050;-87